Time;durP1;ratioP1;P1;durP2;ratioP2;P2;SDS_P1;SDS_P2;PMS_P1;PMS_P2;Temp;Humidity;BMP_temperature;BMP_pressure;BME280_temperature;BME280_humidity;BME280_pressure;Samples;Min_cycle;Max_cycle;Signal;HPM_P1;HPM_P2
2023/08/01 00:01:14;;;;;;;8.93;4.00;;;19.20;99.90;;;;;;5017015;28;20476;-59
2023/08/01 00:03:41;;;;;;;6.33;3.67;;;19.20;99.90;;;;;;5016072;28;20484;-64
2023/08/01 00:06:08;;;;;;;6.33;3.73;;;;;;;;;;5016544;28;20465;-64
2023/08/01 00:08:36;;;;;;;9.90;3.70;;;;;;;;;;5016314;28;20489;-63
2023/08/01 00:11:03;;;;;;;7.97;2.80;;;;;;;;;;5016091;28;20858;-62
2023/08/01 00:13:30;;;;;;;5.93;3.67;;;18.90;99.90;;;;;;5038117;28;20433;-55
2023/08/01 00:15:57;;;;;;;3.90;3.50;;;;;;;;;;5038837;28;20484;-58
2023/08/01 00:18:28;;;;;;;6.80;3.87;;;18.70;99.90;;;;;;5038153;28;20445;-60
2023/08/01 00:20:55;;;;;;;6.20;3.27;;;18.90;99.90;;;;;;5037367;28;20429;-64
2023/08/01 00:23:22;;;;;;;5.43;3.37;;;;;;;;;;5033335;28;20457;-63
2023/08/01 00:25:51;;;;;;;4.60;2.90;;;;;;;;;;5016392;28;20542;-64
2023/08/01 00:28:18;;;;;;;4.50;3.30;;;18.30;99.90;;;;;;5032562;28;20460;-63
2023/08/01 00:30:45;;;;;;;7.03;3.37;;;;;;;;;;5035132;28;20491;-61
2023/08/01 00:33:13;;;;;;;4.43;2.80;;;18.20;99.90;;;;;;5037070;28;20469;-61
2023/08/01 00:35:41;;;;;;;8.00;4.87;;;18.20;99.90;;;;;;5035677;28;20461;-61
2023/08/01 00:38:08;;;;;;;5.57;3.40;;;18.10;99.90;;;;;;5035322;28;20504;-58
2023/08/01 00:40:35;;;;;;;4.93;3.40;;;18.20;99.90;;;;;;5028515;28;20449;-62
2023/08/01 00:43:03;;;;;;;3.37;2.57;;;18.00;99.90;;;;;;5027967;28;20489;-61
2023/08/01 00:45:31;;;;;;;3.43;2.30;;;18.10;99.90;;;;;;5033474;28;20488;-60
2023/08/01 00:47:58;;;;;;;5.00;2.90;;;;;;;;;;5036806;28;20444;-57
2023/08/01 00:50:25;;;;;;;3.10;2.40;;;17.90;99.90;;;;;;5037045;28;20476;-60
2023/08/01 00:52:53;;;;;;;2.93;2.50;;;18.10;99.90;;;;;;5036826;28;20480;-57
2023/08/01 00:55:22;;;;;;;3.07;2.60;;;17.70;99.90;;;;;;5034964;28;20495;-62
2023/08/01 00:57:49;;;;;;;2.47;2.27;;;17.70;99.90;;;;;;5035131;28;20433;-62
2023/08/01 01:00:19;;;;;;;4.93;3.00;;;17.70;99.90;;;;;;5035555;28;20464;-61
2023/08/01 01:02:46;;;;;;;4.07;2.57;;;17.70;99.90;;;;;;5017028;28;20552;-61
2023/08/01 01:05:13;;;;;;;4.37;3.00;;;;;;;;;;5038850;28;20436;-52
2023/08/01 01:07:40;;;;;;;8.67;2.50;;;17.90;99.90;;;;;;5037984;28;20447;-61
2023/08/01 01:10:12;;;;;;;3.70;2.83;;;17.60;99.90;;;;;;5036775;28;20457;-64
2023/08/01 01:12:39;;;;;;;6.83;3.03;;;18.20;99.90;;;;;;5035544;28;20836;-63
2023/08/01 01:15:07;;;;;;;4.50;2.87;;;17.70;99.90;;;;;;5035213;28;20485;-57
2023/08/01 01:17:34;;;;;;;4.30;2.97;;;;;;;;;;5036915;28;20441;-57
2023/08/01 01:20:01;;;;;;;3.10;2.60;;;18.00;99.90;;;;;;5036098;28;20422;-63
2023/08/01 01:22:31;;;;;;;7.53;2.67;;;17.80;99.90;;;;;;5026651;28;20448;-62
2023/08/01 01:24:59;;;;;;;5.10;3.33;;;18.00;99.90;;;;;;5015850;28;20480;-66
2023/08/01 01:27:26;;;;;;;6.53;3.90;;;;;;;;;;5021850;28;20445;-64
2023/08/01 01:29:54;;;;;;;3.77;3.17;;;17.90;99.90;;;;;;5015116;28;20845;-66
2023/08/01 01:32:22;;;;;;;3.27;2.77;;;;;;;;;;5015541;28;20964;-64
2023/08/01 01:34:48;;;;;;;3.20;2.80;;;18.00;99.90;;;;;;5014853;28;20968;-65
2023/08/01 01:37:16;;;;;;;4.47;2.70;;;;;;;;;;5015110;28;21147;-66
2023/08/01 01:39:44;;;;;;;3.77;3.23;;;17.70;99.90;;;;;;5035002;28;20425;-65
2023/08/01 01:42:13;;;;;;;4.20;3.23;;;;;;;;;;5015334;28;20838;-62
2023/08/01 01:44:40;;;;;;;4.47;3.40;;;;;;;;;;5016288;28;20448;-61
2023/08/01 01:47:07;;;;;;;3.50;2.67;;;17.60;99.90;;;;;;5015629;28;20501;-62
2023/08/01 01:49:34;;;;;;;7.17;3.70;;;;;;;;;;5014952;28;21048;-65
2023/08/01 01:52:01;;;;;;;7.20;3.87;;;;;;;;;;5019331;28;21026;-63
2023/08/01 01:54:28;;;;;;;4.90;3.03;;;17.70;99.90;;;;;;5020970;28;20954;-61
2023/08/01 01:56:57;;;;;;;3.30;2.47;;;17.80;99.90;;;;;;5017638;28;20571;-63
2023/08/01 01:59:23;;;;;;;9.10;3.77;;;17.60;99.90;;;;;;5029082;28;20457;-61
2023/08/01 02:01:50;;;;;;;3.97;3.17;;;17.90;99.90;;;;;;5019272;28;20494;-62
2023/08/01 02:04:18;;;;;;;7.70;3.60;;;;;;;;;;5014930;28;20457;-64
2023/08/01 02:06:45;;;;;;;4.00;3.00;;;17.90;99.90;;;;;;5014099;28;20796;-64
2023/08/01 02:09:12;;;;;;;5.10;3.40;;;;;;;;;;5014316;28;20500;-62
2023/08/01 02:11:39;;;;;;;4.27;3.13;;;;;;;;;;5014561;28;20481;-62
2023/08/01 02:14:07;;;;;;;5.63;3.23;;;17.80;99.90;;;;;;5014978;28;20531;-63
2023/08/01 02:16:36;;;;;;;4.90;3.57;;;;;;;;;;5014882;28;20551;-61
2023/08/01 02:19:04;;;;;;;4.13;3.73;;;;;;;;;;5014706;28;20451;-62
2023/08/01 02:21:31;;;;;;;4.10;3.70;;;;;;;;;;5036321;28;20476;-52
2023/08/01 02:23:58;;;;;;;5.90;3.70;;;17.60;99.90;;;;;;5016814;28;20465;-61
2023/08/01 02:26:25;;;;;;;5.13;3.50;;;;;;;;;;5014451;28;20472;-63
2023/08/01 02:28:52;;;;;;;5.87;3.80;;;17.60;99.90;;;;;;5014536;28;20520;-63
2023/08/01 02:31:20;;;;;;;5.50;3.60;;;18.00;99.90;;;;;;5014539;28;21009;-63
2023/08/01 02:33:48;;;;;;;9.80;4.40;;;17.80;99.90;;;;;;5029144;28;20456;-59
2023/08/01 02:36:15;;;;;;;4.60;3.83;;;18.30;99.90;;;;;;5036311;28;20503;-53
2023/08/01 02:38:42;;;;;;;12.30;3.87;;;17.90;99.90;;;;;;5036106;28;20437;-60
2023/08/01 02:41:09;;;;;;;4.37;3.13;;;17.70;99.90;;;;;;5035921;28;20429;-55
2023/08/01 02:43:36;;;;;;;7.67;3.03;;;;;;;;;;5017967;28;20507;-63
2023/08/01 02:46:03;;;;;;;4.37;3.97;;;;;;;;;;5014362;28;20492;-63
2023/08/01 02:48:32;;;;;;;7.03;4.40;;;;;;;;;;5014253;28;20473;-63
2023/08/01 02:50:59;;;;;;;5.30;4.13;;;17.80;99.90;;;;;;5014515;28;20548;-61
2023/08/01 02:53:26;;;;;;;9.40;4.10;;;;;;;;;;5013945;28;20560;-61
2023/08/01 02:55:53;;;;;;;11.53;4.63;;;17.60;99.90;;;;;;5013825;28;21035;-63
2023/08/01 02:58:20;;;;;;;6.30;4.50;;;;;;;;;;5015052;28;21104;-61
2023/08/01 03:00:47;;;;;;;5.10;3.30;;;;;;;;;;5019388;28;20843;-62
2023/08/01 03:03:15;;;;;;;10.90;5.13;;;18.00;99.90;;;;;;5030887;28;20485;-58
2023/08/01 03:05:43;;;;;;;6.40;4.00;;;17.70;99.90;;;;;;5034062;28;20525;-62
2023/08/01 03:08:10;;;;;;;7.33;4.20;;;18.00;99.90;;;;;;5034652;28;20543;-59
2023/08/01 03:10:37;;;;;;;5.93;3.80;;;17.70;99.90;;;;;;5034747;28;20460;-59
2023/08/01 03:13:04;;;;;;;3.50;3.10;;;17.40;99.90;;;;;;5034686;28;20429;-58
2023/08/01 03:15:31;;;;;;;3.60;3.27;;;17.80;99.90;;;;;;5033835;28;20453;-61
2023/08/01 03:17:58;;;;;;;6.53;3.57;;;;;;;;;;5034529;28;20429;-60
2023/08/01 03:20:25;;;;;;;5.53;3.70;;;17.60;99.90;;;;;;5037856;28;20460;-62
2023/08/01 03:22:53;;;;;;;9.97;4.10;;;17.90;99.90;;;;;;5038586;28;20452;-63
2023/08/01 03:25:21;;;;;;;7.67;6.00;;;18.10;99.90;;;;;;5038658;28;20433;-59
2023/08/01 03:27:47;;;;;;;4.13;3.73;;;17.40;99.90;;;;;;5038605;28;20503;-58
2023/08/01 03:30:14;;;;;;;7.93;3.00;;;17.60;99.90;;;;;;5038205;28;20456;-61
2023/08/01 03:32:44;;;;;;;6.60;3.43;;;18.20;99.90;;;;;;5038555;28;20464;-61
2023/08/01 03:35:11;;;;;;;7.00;3.77;;;17.90;99.90;;;;;;5038701;28;20428;-59
2023/08/01 03:37:38;;;;;;;4.17;3.53;;;18.40;99.90;;;;;;5038151;28;20489;-61
2023/08/01 03:40:08;;;;;;;5.10;3.87;;;17.90;99.90;;;;;;5038189;28;20441;-60
2023/08/01 03:42:35;;;;;;;5.43;3.50;;;;;;;;;;5035017;28;20472;-64
2023/08/01 03:45:02;;;;;;;5.50;3.40;;;17.90;99.90;;;;;;5017466;28;20433;-66
2023/08/01 03:47:30;;;;;;;5.30;3.83;;;;;;;;;;5017412;28;20483;-64
2023/08/01 03:49:57;;;;;;;4.20;3.43;;;18.10;99.90;;;;;;5017255;28;20472;-63
2023/08/01 03:52:24;;;;;;;5.10;3.57;;;;;;;;;;5017719;28;20452;-62
2023/08/01 03:54:51;;;;;;;4.50;3.47;;;;;;;;;;5017247;28;20477;-62
2023/08/01 03:57:19;;;;;;;5.10;3.70;;;;;;;;;;5016464;28;20517;-63
2023/08/01 03:59:50;;;;;;;7.17;4.10;;;17.80;99.90;;;;;;4997117;28;20512;-62
2023/08/01 04:02:18;;;;;;;4.37;3.67;;;;;;;;;;4997200;28;20485;-61
2023/08/01 04:04:45;;;;;;;5.90;4.30;;;;;;;;;;5011832;28;20935;-63
2023/08/01 04:07:12;;;;;;;4.30;3.20;;;18.10;99.90;;;;;;4999243;28;21067;-51
2023/08/01 04:09:39;;;;;;;5.03;3.37;;;18.00;99.90;;;;;;5017285;28;20442;-61
2023/08/01 04:12:07;;;;;;;5.03;3.50;;;17.70;99.90;;;;;;4997288;28;20502;-62
2023/08/01 04:14:35;;;;;;;4.87;3.30;;;18.10;99.90;;;;;;4997042;28;20452;-65
2023/08/01 04:17:02;;;;;;;6.83;4.27;;;18.20;99.90;;;;;;5005368;28;20565;-62
2023/08/01 04:19:29;;;;;;;3.67;3.37;;;18.10;99.90;;;;;;4999378;28;20438;-57
2023/08/01 04:21:56;;;;;;;3.50;3.20;;;;;;;;;;5017823;28;20453;-60
2023/08/01 04:24:25;;;;;;;4.23;3.10;;;;;;;;;;5000359;28;20457;-63
2023/08/01 04:26:52;;;;;;;7.10;2.80;;;17.80;99.90;;;;;;4999726;28;20442;-62
2023/08/01 04:29:19;;;;;;;8.10;3.60;;;18.50;99.90;;;;;;5012664;28;20516;-63
2023/08/01 04:31:47;;;;;;;5.80;3.70;;;18.30;99.90;;;;;;5015753;28;20465;-62
2023/08/01 04:34:14;;;;;;;4.90;3.70;;;;;;;;;;5016541;28;20563;-63
2023/08/01 04:36:41;;;;;;;3.73;2.67;;;18.20;99.90;;;;;;5016490;28;20582;-61
2023/08/01 04:39:08;;;;;;;11.33;3.77;;;;;;;;;;5016321;28;20488;-62
2023/08/01 04:41:36;;;;;;;9.40;3.10;;;;;;;;;;5016492;28;20526;-63
2023/08/01 04:44:03;;;;;;;4.27;3.27;;;;;;;;;;5023289;28;20480;-58
2023/08/01 04:46:30;;;;;;;8.23;3.87;;;;;;;;;;5028183;28;20437;-64
2023/08/01 04:48:58;;;;;;;6.03;2.90;;;18.20;99.90;;;;;;5016021;28;20548;-62
2023/08/01 04:51:26;;;;;;;4.10;3.07;;;;;;;;;;5016111;28;20468;-61
2023/08/01 04:53:53;;;;;;;4.33;3.70;;;18.90;99.90;;;;;;5016485;28;20476;-63
2023/08/01 04:56:19;;;;;;;3.93;3.20;;;18.20;99.90;;;;;;5020573;28;20489;-63
2023/08/01 04:58:47;;;;;;;4.80;2.83;;;;;;;;;;5008527;28;20457;-63
2023/08/01 05:01:14;;;;;;;6.23;2.87;;;;;;;;;;4998294;28;20506;-63
2023/08/01 05:03:42;;;;;;;6.90;3.43;;;;;;;;;;5009145;28;20442;-56
2023/08/01 05:06:16;;;;;;;5.60;2.73;;;18.10;99.90;;;;;;5019637;28;20422;-55
2023/08/01 05:08:43;;;;;;;5.93;3.50;;;;;;;;;;5004713;28;20498;-63
2023/08/01 05:11:10;;;;;;;5.23;4.47;;;18.00;99.90;;;;;;4996354;28;20548;-63
2023/08/01 05:13:37;;;;;;;6.60;3.30;;;18.20;99.90;;;;;;5004046;28;20505;-50
2023/08/01 05:16:04;;;;;;;4.90;3.30;;;;;;;;;;5019165;28;20425;-56
2023/08/01 05:18:31;;;;;;;6.00;3.33;;;18.30;99.90;;;;;;5007509;28;20513;-61
2023/08/01 05:20:58;;;;;;;4.03;3.33;;;;;;;;;;4995955;28;20505;-62
2023/08/01 05:23:26;;;;;;;5.47;3.07;;;18.30;99.90;;;;;;5000196;28;20473;-52
2023/08/01 05:25:53;;;;;;;3.63;2.93;;;18.30;99.90;;;;;;5018720;28;20906;-61
2023/08/01 05:28:20;;;;;;;6.17;3.30;;;;;;;;;;5012018;28;20476;-62
2023/08/01 05:30:48;;;;;;;4.10;3.67;;;18.30;99.90;;;;;;5015178;28;20469;-62
2023/08/01 05:33:15;;;;;;;4.73;3.23;;;18.30;99.90;;;;;;5015652;28;20429;-61
2023/08/01 05:35:42;;;;;;;3.70;2.67;;;18.50;99.90;;;;;;5015409;28;20552;-63
2023/08/01 05:38:09;;;;;;;5.60;3.10;;;18.60;99.90;;;;;;5015264;28;20489;-62
2023/08/01 05:40:37;;;;;;;5.80;2.90;;;18.40;99.90;;;;;;5015003;28;20476;-63
2023/08/01 05:43:05;;;;;;;4.37;3.23;;;;;;;;;;5015464;28;20516;-62
2023/08/01 05:45:31;;;;;;;5.57;3.10;;;18.60;99.90;;;;;;5016341;28;20449;-58
2023/08/01 05:47:58;;;;;;;5.20;2.70;;;18.60;99.90;;;;;;5019606;28;20504;-58
2023/08/01 05:50:25;;;;;;;7.97;2.80;;;18.70;99.90;;;;;;5036176;28;20449;-57
2023/08/01 05:52:52;;;;;;;5.20;2.77;;;18.40;99.90;;;;;;5037383;28;20474;-62
2023/08/01 05:55:19;;;;;;;5.00;2.70;;;18.40;99.90;;;;;;5018027;28;20480;-63
2023/08/01 05:57:48;;;;;;;5.20;3.20;;;18.50;99.90;;;;;;5015918;28;21258;-62
2023/08/01 06:00:16;;;;;;;7.43;3.20;;;18.60;99.90;;;;;;5024195;28;20492;-64
2023/08/01 06:02:43;;;;;;;3.63;2.60;;;18.70;99.90;;;;;;5016139;28;20511;-64
2023/08/01 06:05:10;;;;;;;5.00;3.67;;;18.40;99.90;;;;;;5018236;28;20476;-62
2023/08/01 06:07:37;;;;;;;5.30;2.50;;;18.60;99.90;;;;;;5017285;28;20528;-62
2023/08/01 06:10:04;;;;;;;3.23;2.50;;;18.50;99.90;;;;;;5018112;28;20512;-63
2023/08/01 06:12:31;;;;;;;5.00;3.47;;;18.50;99.90;;;;;;5020811;28;20449;-62
2023/08/01 06:14:59;;;;;;;8.00;3.90;;;18.50;99.90;;;;;;5028847;28;20484;-64
2023/08/01 06:17:26;;;;;;;10.23;5.07;;;18.30;99.90;;;;;;5016570;28;20517;-65
2023/08/01 06:19:54;;;;;;;13.93;7.00;;;18.40;99.90;;;;;;5014568;28;20445;-64
2023/08/01 06:22:21;;;;;;;16.37;6.80;;;;;;;;;;5016213;28;20437;-62
2023/08/01 06:24:48;;;;;;;16.93;5.83;;;18.60;99.90;;;;;;5014451;28;20540;-63
2023/08/01 06:27:15;;;;;;;21.23;9.17;;;18.50;99.90;;;;;;5014748;28;20473;-63
2023/08/01 06:29:43;;;;;;;22.70;11.50;;;;;;;;;;5014660;28;20776;-62
2023/08/01 06:32:11;;;;;;;20.23;10.57;;;;;;;;;;5014363;28;20499;-63
2023/08/01 06:34:38;;;;;;;11.80;6.97;;;18.90;99.90;;;;;;5020955;28;20487;-60
2023/08/01 06:37:05;;;;;;;13.40;6.60;;;18.50;99.90;;;;;;5025649;28;20592;-63
2023/08/01 06:39:32;;;;;;;6.63;4.70;;;18.50;99.90;;;;;;5014296;28;20477;-59
2023/08/01 06:41:59;;;;;;;6.73;3.97;;;18.70;99.90;;;;;;5034681;28;20476;-59
2023/08/01 06:44:26;;;;;;;5.00;3.63;;;;;;;;;;5034714;28;20464;-61
2023/08/01 06:46:53;;;;;;;7.47;4.60;;;;;;;;;;5017423;28;20472;-64
2023/08/01 06:49:21;;;;;;;5.93;5.20;;;19.10;99.90;;;;;;5014313;28;20469;-60
2023/08/01 06:51:49;;;;;;;4.43;2.93;;;;;;;;;;5030781;28;20452;-58
2023/08/01 06:54:15;;;;;;;4.43;2.83;;;18.90;99.90;;;;;;5037109;28;20564;-51
2023/08/01 06:56:47;;;;;;;5.77;3.90;;;18.90;99.90;;;;;;5037914;28;20441;-59
2023/08/01 06:59:14;;;;;;;5.07;2.80;;;;;;;;;;5038444;28;20537;-57
2023/08/01 07:01:43;;;;;;;4.20;3.10;;;18.80;99.90;;;;;;5039154;28;20437;-61
2023/08/01 07:04:10;;;;;;;5.30;4.53;;;18.80;99.90;;;;;;5039209;28;20480;-62
2023/08/01 07:06:38;;;;;;;12.80;10.50;;;18.70;99.90;;;;;;5037202;28;20448;-64
2023/08/01 07:09:08;;;;;;;15.23;10.50;;;18.80;99.90;;;;;;5037282;28;20463;-59
2023/08/01 07:11:35;;;;;;;8.60;6.90;;;18.70;99.90;;;;;;5024359;28;20461;-62
2023/08/01 07:14:02;;;;;;;5.60;4.80;;;;;;;;;;5017877;28;20548;-62
2023/08/01 07:16:29;;;;;;;4.23;3.17;;;;;;;;;;5017615;28;20499;-63
2023/08/01 07:18:56;;;;;;;7.87;3.17;;;19.10;99.90;;;;;;5017481;28;20560;-61
2023/08/01 07:21:23;;;;;;;7.83;4.43;;;;;;;;;;5017899;28;20603;-62
2023/08/01 07:23:52;;;;;;;6.10;5.30;;;19.10;99.90;;;;;;5030427;28;20448;-59
2023/08/01 07:26:19;;;;;;;5.80;5.20;;;19.00;99.90;;;;;;5034585;28;20434;-60
2023/08/01 07:28:46;;;;;;;5.23;4.70;;;;;;;;;;5002960;28;20500;-62
2023/08/01 07:31:13;;;;;;;5.53;4.23;;;19.20;99.90;;;;;;5017582;28;20482;-59
2023/08/01 07:33:40;;;;;;;3.83;3.23;;;;;;;;;;5017940;28;20480;-60
2023/08/01 07:36:07;;;;;;;11.13;6.70;;;19.50;99.90;;;;;;5017513;28;20465;-62
2023/08/01 07:38:34;;;;;;;9.00;6.23;;;;;;;;;;5017164;28;20512;-62
2023/08/01 07:41:07;;;;;;;5.43;3.63;;;19.50;99.90;;;;;;5016962;28;20441;-61
2023/08/01 07:43:34;;;;;;;6.03;5.40;;;;;;;;;;5014503;28;20468;-62
2023/08/01 07:46:08;;;;;;;4.23;3.70;;;19.90;99.90;;;;;;5018152;28;20506;-61
2023/08/01 07:48:35;;;;;;;4.73;3.20;;;;;;;;;;5039971;28;20464;-58
2023/08/01 07:51:03;;;;;;;3.80;3.37;;;19.70;99.90;;;;;;5019682;28;20759;-65
2023/08/01 07:53:32;;;;;;;3.00;2.63;;;19.90;99.90;;;;;;5019023;28;20476;-62
2023/08/01 07:56:01;;;;;;;4.20;3.20;;;;;;;;;;5021483;28;20537;-62
2023/08/01 07:58:30;;;;;;;3.73;3.33;;;;;;;;;;5018607;28;20946;-61
2023/08/01 08:00:57;;;;;;;7.37;5.53;;;;;;;;;;5015162;28;20437;-62
2023/08/01 08:03:24;;;;;;;4.37;3.30;;;;;;;;;;5016960;28;20465;-61
2023/08/01 08:05:51;;;;;;;16.50;7.50;;;20.60;99.90;;;;;;5017297;28;20452;-64
2023/08/01 08:08:18;;;;;;;8.10;6.10;;;;;;;;;;5016961;28;20504;-62
2023/08/01 08:10:46;;;;;;;8.10;5.80;;;;;;;;;;5017000;28;20457;-60
2023/08/01 08:13:12;;;;;;;6.47;3.53;;;21.10;99.90;;;;;;5016601;28;20492;-63
2023/08/01 08:15:41;;;;;;;5.23;3.90;;;21.60;99.90;;;;;;5017138;28;20816;-71
2023/08/01 08:18:08;;;;;;;3.03;2.73;;;21.20;99.90;;;;;;5017009;28;20520;-65
2023/08/01 08:20:42;;;;;;;3.53;3.20;;;21.80;99.90;;;;;;5039391;28;20458;-50
2023/08/01 08:23:09;;;;;;;2.33;2.00;;;;;;;;;;5040247;28;20417;-50
2023/08/01 08:25:38;;;;;;;2.80;2.10;;;22.10;99.90;;;;;;5040216;28;20475;-49
2023/08/01 08:28:05;;;;;;;2.43;2.23;;;22.60;99.90;;;;;;5039036;28;20483;-59
2023/08/01 08:30:32;;;;;;;4.17;2.20;;;;;;;;;;5021603;28;20512;-49
2023/08/01 08:33:04;;;;;;;2.80;2.03;;;23.20;99.90;;;;;;5030357;28;20456;-65
2023/08/01 08:35:31;;;;;;;3.40;1.80;;;22.90;99.90;;;;;;5019267;28;20464;-61
2023/08/01 08:38:00;;;;;;;2.50;2.13;;;23.10;99.90;;;;;;5016309;28;20817;-62
2023/08/01 08:40:28;;;;;;;2.43;1.90;;;22.90;99.90;;;;;;5036631;28;20453;-53
2023/08/01 08:42:55;;;;;;;2.20;1.90;;;;;;;;;;5038690;28;20418;-63
2023/08/01 08:45:23;;;;;;;4.07;2.00;;;22.80;99.90;;;;;;5017094;28;20477;-68
2023/08/01 08:47:55;;;;;;;2.30;1.80;;;22.50;99.90;;;;;;5019143;28;20490;-52
2023/08/01 08:50:34;;;;;;;4.70;2.33;;;22.20;99.90;;;;;;5039866;28;20464;-55
2023/08/01 08:53:01;;;;;;;3.33;2.60;;;22.10;99.90;;;;;;5016512;28;20458;-63
2023/08/01 08:55:31;;;;;;;4.60;2.10;;;21.80;99.90;;;;;;5035940;28;20457;-53
2023/08/01 08:57:59;;;;;;;2.30;1.83;;;21.60;99.90;;;;;;5020048;28;20476;-65
2023/08/01 09:00:27;;;;;;;2.20;1.93;;;21.60;99.90;;;;;;5011689;28;20505;-64
2023/08/01 09:02:54;;;;;;;1.97;1.50;;;21.80;99.90;;;;;;5017463;28;20465;-59
2023/08/01 09:05:27;;;;;;;1.70;1.53;;;21.90;99.90;;;;;;4996691;28;21014;-61
2023/08/01 09:08:05;;;;;;;1.93;1.50;;;21.70;99.90;;;;;;5019327;28;20406;-55
2023/08/01 09:10:32;;;;;;;2.13;1.70;;;21.80;99.90;;;;;;5001181;28;20466;-62
2023/08/01 09:12:59;;;;;;;2.90;2.13;;;22.00;99.90;;;;;;5006794;28;20437;-54
2023/08/01 09:15:28;;;;;;;2.47;1.73;;;21.70;99.90;;;;;;5012529;28;20556;-61
2023/08/01 09:18:00;;;;;;;1.73;1.50;;;22.60;99.90;;;;;;5034962;28;20461;-55
2023/08/01 09:20:27;;;;;;;3.00;1.57;;;22.40;99.90;;;;;;5028735;28;20437;-62
2023/08/01 09:22:56;;;;;;;1.97;1.40;;;22.80;99.90;;;;;;5015769;28;20435;-62
2023/08/01 09:25:34;;;;;;;1.47;1.37;;;23.10;99.90;;;;;;5038790;28;20441;-53
2023/08/01 09:28:04;;;;;;;3.97;1.70;;;23.20;99.90;;;;;;5030891;28;20437;-53
2023/08/01 09:30:31;;;;;;;1.63;1.53;;;;;;;;;;5037069;28;20469;-59
2023/08/01 09:32:58;;;;;;;1.90;1.20;;;23.50;99.90;;;;;;5033493;28;20426;-63
2023/08/01 09:35:29;;;;;;;1.63;1.50;;;23.60;99.90;;;;;;5018886;28;20460;-58
2023/08/01 09:38:01;;;;;;;1.87;1.37;;;23.30;99.90;;;;;;5038803;28;20464;-56
2023/08/01 09:40:37;;;;;;;1.73;1.20;;;23.10;99.90;;;;;;5037709;28;20426;-62
2023/08/01 09:43:04;;;;;;;2.57;2.23;;;22.60;99.90;;;;;;5017476;28;20504;-64
2023/08/01 09:45:31;;;;;;;1.80;1.50;;;;;;;;;;5015558;28;20453;-62
2023/08/01 09:47:58;;;;;;;1.50;1.27;;;21.80;99.90;;;;;;5015111;28;20479;-67
2023/08/01 09:50:25;;;;;;;1.30;1.20;;;22.60;99.90;;;;;;5024710;28;20461;-54
2023/08/01 09:52:53;;;;;;;2.30;1.20;;;21.10;99.90;;;;;;5038205;28;20429;-54
2023/08/01 09:55:27;;;;;;;9.50;1.23;;;21.10;99.90;;;;;;5027389;28;20831;-63
2023/08/01 09:58:05;;;;;;;1.93;1.20;;;21.40;99.90;;;;;;5036600;28;20482;-58
2023/08/01 10:00:33;;;;;;;2.80;1.40;;;21.90;99.90;;;;;;5027971;28;20455;-63
2023/08/01 10:03:01;;;;;;;3.30;1.40;;;21.90;99.90;;;;;;5034182;28;20473;-61
2023/08/01 10:05:31;;;;;;;1.70;1.20;;;21.90;99.90;;;;;;5019861;28;20476;-62
2023/08/01 10:08:00;;;;;;;1.60;1.20;;;21.60;99.90;;;;;;5032932;28;20472;-62
2023/08/01 10:10:30;;;;;;;1.50;1.13;;;22.10;99.90;;;;;;5022359;28;20421;-52
2023/08/01 10:12:58;;;;;;;1.40;1.10;;;21.80;99.90;;;;;;5038848;28;20448;-59
2023/08/01 10:15:26;;;;;;;2.07;1.33;;;21.90;99.90;;;;;;5036718;28;20881;-61
2023/08/01 10:17:52;;;;;;;1.73;1.40;;;21.70;99.90;;;;;;5018750;28;20940;-63
2023/08/01 10:20:22;;;;;;;2.03;1.57;;;21.90;99.90;;;;;;5015169;28;20528;-66
2023/08/01 10:22:52;;;;;;;1.57;1.27;;;21.50;99.90;;;;;;5019567;28;20455;-56
2023/08/01 10:25:21;;;;;;;1.87;1.17;;;21.50;99.90;;;;;;5032221;28;20441;-64
2023/08/01 10:28:00;;;;;;;1.40;1.20;;;21.50;99.90;;;;;;5017117;28;20500;-63
2023/08/01 10:30:28;;;;;;;2.10;1.27;;;21.30;99.90;;;;;;5023446;28;20434;-62
2023/08/01 10:32:56;;;;;;;1.93;1.60;;;21.50;99.90;;;;;;5014675;28;20504;-63
2023/08/01 10:35:33;;;;;;;1.40;1.30;;;;;;;;;;5013657;28;20437;-64
2023/08/01 10:38:05;;;;;;;1.30;1.10;;;21.60;99.90;;;;;;5015988;28;20483;-62
2023/08/01 10:40:36;;;;;;;1.77;1.40;;;21.40;99.90;;;;;;5014177;28;20528;-65
2023/08/01 10:43:05;;;;;;;1.50;1.40;;;21.30;99.90;;;;;;5021389;28;20469;-55
2023/08/01 10:45:33;;;;;;;1.20;1.10;;;21.20;99.90;;;;;;5030922;28;20937;-62
2023/08/01 10:48:11;;;;;;;1.93;1.40;;;21.30;99.90;;;;;;5022300;28;20792;-63
2023/08/01 10:50:39;;;;;;;1.80;1.10;;;21.10;99.90;;;;;;5026982;28;20460;-65
2023/08/01 10:53:08;;;;;;;1.17;0.90;;;20.50;99.90;;;;;;5023069;28;20852;-52
2023/08/01 10:55:42;;;;;;;1.83;1.23;;;19.80;99.90;;;;;;5034957;28;20515;-61
2023/08/01 10:58:11;;;;;;;1.77;1.33;;;20.30;99.90;;;;;;5014411;28;20490;-62
2023/08/01 11:00:43;;;;;;;2.37;1.07;;;20.30;99.90;;;;;;5025435;28;20484;-53
2023/08/01 11:03:13;;;;;;;4.00;2.07;;;;;;;;;;5037798;28;20416;-62
2023/08/01 11:05:40;;;;;;;1.93;1.10;;;19.40;99.90;;;;;;5015662;28;20461;-63
2023/08/01 11:08:07;;;;;;;1.57;1.10;;;;;;;;;;5014654;28;20468;-63
2023/08/01 11:10:34;;;;;;;1.57;1.40;;;19.40;99.90;;;;;;5015653;28;20446;-61
2023/08/01 11:13:01;;;;;;;1.37;1.27;;;;;;;;;;5018269;28;20457;-62
2023/08/01 11:15:30;;;;;;;2.37;1.40;;;19.20;99.90;;;;;;5016097;28;20503;-63
2023/08/01 11:17:57;;;;;;;1.40;1.20;;;19.10;99.90;;;;;;5018269;28;20855;-60
2023/08/01 11:20:26;;;;;;;2.07;1.40;;;19.20;99.90;;;;;;5037432;28;20441;-53
2023/08/01 11:22:56;;;;;;;2.17;1.70;;;19.00;99.90;;;;;;5029311;28;20469;-62
2023/08/01 11:25:35;;;;;;;1.60;1.50;;;18.90;99.90;;;;;;5021705;28;20847;-52
2023/08/01 11:28:07;;;;;;;5.33;1.50;;;18.80;99.90;;;;;;5038063;28;20437;-57
2023/08/01 11:30:36;;;;;;;1.40;0.93;;;19.10;99.90;;;;;;5037077;28;20492;-60
2023/08/01 11:33:05;;;;;;;2.60;1.70;;;18.80;99.90;;;;;;5035648;28;20479;-64
2023/08/01 11:35:31;;;;;;;1.50;1.20;;;18.90;99.90;;;;;;5033852;28;20459;-59
2023/08/01 11:37:59;;;;;;;3.40;2.00;;;19.00;99.90;;;;;;5025278;28;20463;-51
2023/08/01 11:40:26;;;;;;;1.90;1.70;;;18.80;99.90;;;;;;5038916;28;20433;-61
2023/08/01 11:42:58;;;;;;;2.03;1.70;;;19.00;99.90;;;;;;5023033;28;20568;-63
2023/08/01 11:45:25;;;;;;;3.10;1.80;;;20.50;99.90;;;;;;5016689;28;20469;-60
2023/08/01 11:47:55;;;;;;;3.63;2.10;;;19.20;99.90;;;;;;5019481;28;20474;-53
2023/08/01 11:50:23;;;;;;;4.67;1.70;;;19.60;99.90;;;;;;5032512;28;20437;-62
2023/08/01 11:52:50;;;;;;;4.67;2.37;;;19.10;99.90;;;;;;5023847;28;20571;-62
2023/08/01 11:55:23;;;;;;;2.47;2.20;;;19.40;99.90;;;;;;5029370;28;20440;-51
2023/08/01 11:57:54;;;;;;;2.50;2.30;;;19.20;99.90;;;;;;5041187;28;20440;-59
2023/08/01 12:00:26;;;;;;;3.20;2.50;;;19.50;99.90;;;;;;5037611;28;20491;-60
2023/08/01 12:03:04;;;;;;;2.80;2.50;;;19.20;99.90;;;;;;5024349;28;20487;-60
2023/08/01 12:05:32;;;;;;;4.63;2.60;;;19.60;99.90;;;;;;5029110;28;20917;-61
2023/08/01 12:08:09;;;;;;;4.23;3.30;;;20.30;99.90;;;;;;5038681;28;20457;-61
2023/08/01 12:10:38;;;;;;;2.63;2.43;;;19.80;99.90;;;;;;5024037;28;20448;-61
2023/08/01 12:13:05;;;;;;;3.10;2.80;;;20.00;99.90;;;;;;5035554;28;20429;-55
2023/08/01 12:15:32;;;;;;;4.20;2.87;;;19.60;99.90;;;;;;5040158;28;20445;-59
2023/08/01 12:18:00;;;;;;;3.27;2.53;;;20.40;99.90;;;;;;5039106;28;20445;-62
2023/08/01 12:20:27;;;;;;;5.50;2.47;;;20.60;99.90;;;;;;5022066;28;20473;-62
2023/08/01 12:22:55;;;;;;;3.60;2.60;;;;;;;;;;5040038;28;20457;-50
2023/08/01 12:25:21;;;;;;;4.83;2.50;;;20.20;99.90;;;;;;5022256;28;20445;-61
2023/08/01 12:27:48;;;;;;;3.60;2.83;;;20.10;99.90;;;;;;5017204;28;20452;-62
2023/08/01 12:30:15;;;;;;;5.13;3.03;;;;;;;;;;5020643;28;20505;-61
2023/08/01 12:32:42;;;;;;;2.90;2.17;;;20.50;99.90;;;;;;4997539;28;20477;-63
2023/08/01 12:35:11;;;;;;;3.20;2.90;;;20.20;99.90;;;;;;5024826;28;20457;-55
2023/08/01 12:37:39;;;;;;;4.20;2.30;;;;;;;;;;5024463;28;20446;-61
2023/08/01 12:40:07;;;;;;;3.20;2.60;;;20.90;99.90;;;;;;5030029;28;20527;-64
2023/08/01 12:42:35;;;;;;;4.30;2.90;;;21.40;99.90;;;;;;5032951;28;20461;-62
2023/08/01 12:45:03;;;;;;;2.80;2.20;;;;;;;;;;5024579;28;20445;-52
2023/08/01 12:47:30;;;;;;;3.77;3.47;;;21.50;99.90;;;;;;5030349;28;20521;-62
2023/08/01 12:50:01;;;;;;;5.00;2.97;;;21.30;99.90;;;;;;5022339;28;20441;-51
2023/08/01 12:52:30;;;;;;;4.47;2.87;;;21.10;99.90;;;;;;5038125;28;20524;-62
2023/08/01 12:54:57;;;;;;;4.43;2.67;;;21.40;99.90;;;;;;5019011;28;20473;-62
2023/08/01 12:57:24;;;;;;;4.87;3.30;;;21.40;99.90;;;;;;5033272;28;20457;-59
2023/08/01 12:59:51;;;;;;;3.17;2.87;;;21.60;99.90;;;;;;5017523;28;20551;-54
2023/08/01 13:02:18;;;;;;;3.60;2.73;;;;;;;;;;5027381;28;20794;-58
2023/08/01 13:04:45;;;;;;;4.53;2.60;;;21.30;99.90;;;;;;5026609;28;20469;-61
2023/08/01 13:07:12;;;;;;;2.83;2.40;;;;;;;;;;5016502;28;20507;-64
2023/08/01 13:09:40;;;;;;;3.23;2.27;;;21.30;99.90;;;;;;5015910;28;20846;-62
2023/08/01 13:12:08;;;;;;;3.13;2.83;;;21.50;99.90;;;;;;5032134;28;20757;-62
2023/08/01 13:14:35;;;;;;;3.37;2.40;;;21.50;99.90;;;;;;5031536;28;20437;-59
2023/08/01 13:17:02;;;;;;;4.90;2.60;;;21.60;99.90;;;;;;5019696;28;20456;-62
2023/08/01 13:19:29;;;;;;;4.70;2.30;;;;;;;;;;5016364;28;20567;-63